This is the latest recevied weather packets stored in our database for station/object EA1RCG-11. If no packets are shown the sender has not sent any weather packets the latest 10 day(s).
| Time | Temp. | Humidity | Pressure | Rain* | Wind** | Luminosity | Snow |
|---|---|---|---|---|---|---|---|
| 1787998054 | 58.33° C | 24% | 981.2 hPa | - | - | - | - |
| 1787996254 | 51.67° C | 28% | 981.6 hPa | - | - | - | - |
| 1787994453 | 41.11° C | 35% | 981.2 hPa | - | - | - | - |
| 1787992653 | 52.22° C | 27% | 981.8 hPa | - | - | - | - |
| 1787990853 | 47.78° C | 28% | 982.1 hPa | - | - | - | - |
| 1787989053 | 41.11° C | 32% | 982.4 hPa | - | - | - | - |
| 1787987253 | 28.33° C | 40% | 982.8 hPa | - | - | - | - |
| 1787985453 | 15° C | 57% | 982.7 hPa | - | - | - | - |
| 1787983653 | 15° C | 58% | 982.7 hPa | - | - | - | - |
| 1787981853 | 13.89° C | 59% | 982.6 hPa | - | - | - | - |
| 1787980053 | 13.89° C | 59% | 982.5 hPa | - | - | - | - |
| 1787978253 | 14.44° C | 59% | 982.8 hPa | - | - | - | - |
| 1787976452 | 14.44° C | 59% | 982.9 hPa | - | - | - | - |
| 1787974652 | 14.44° C | 59% | 983 hPa | - | - | - | - |
| 1787972852 | 15° C | 59% | 983 hPa | - | - | - | - |
| 1787971052 | 15° C | 59% | 983 hPa | - | - | - | - |
| 1787969252 | 15° C | 59% | 983.1 hPa | - | - | - | - |
| 1787967452 | 15.56° C | 58% | 983.1 hPa | - | - | - | - |
| 1787965652 | 15.56° C | 59% | 983.2 hPa | - | - | - | - |
| 1787963852 | 16.11° C | 58% | 983.3 hPa | - | - | - | - |
| 1787962052 | 16.11° C | 58% | 983.6 hPa | - | - | - | - |
| 1787960251 | 16.67° C | 58% | 983.9 hPa | - | - | - | - |
| 1787958450 | 16.67° C | 57% | 984.2 hPa | - | - | - | - |
| 1787956650 | 17.22° C | 57% | 984.3 hPa | - | - | - | - |
| 1787954850 | 17.78° C | 57% | 984.2 hPa | - | - | - | - |
* Rain since midnight (hover to see other rain measurements)
** Current wind speed in m/s (hover to see current wind gust speed)